This is the latest recevied weather packets stored in our database for station/object KB1JL-13. If no packets are shown the sender has not sent any weather packets the latest 10 day(s).
| Time | Temp. | Humidity | Pressure | Rain* | Wind** | Luminosity | Snow |
|---|---|---|---|---|---|---|---|
| 1777646539 | 12.78° C | 57% | 1023.7 hPa | 0 mm | - | 769 W/m² | - |
| 1777646235 | 12.78° C | 54% | 1023.4 hPa | 0 mm | - | 702 W/m² | - |
| 1777645933 | 12.78° C | 58% | 1023.7 hPa | 0 mm | - | 693 W/m² | - |
| 1777645629 | 12.22° C | 57% | 1023.4 hPa | 0 mm | - | 700 W/m² | - |
| 1777645325 | 12.22° C | 60% | 1023.7 hPa | 0 mm | - | 695 W/m² | - |
| 1777645021 | 12.22° C | 61% | 1023.7 hPa | 0 mm | - | 690 W/m² | - |
| 1777644718 | 11.11° C | 65% | 1023.7 hPa | 0 mm | - | 698 W/m² | - |
| 1777644415 | 11.67° C | 64% | 1023.7 hPa | 0 mm | - | 134 W/m² | - |
| 1777644112 | 11.11° C | 65% | 1023.7 hPa | 0 mm | - | 391 W/m² | - |
| 1777643808 | 11.11° C | 64% | 1023.7 hPa | 0 mm | - | 176 W/m² | - |
| 1777643505 | 11.67° C | 66% | 1023.7 hPa | 0 mm | - | 301 W/m² | - |
| 1777643202 | 11.67° C | 63% | 1023.7 hPa | 0 mm | - | 776 W/m² | - |
| 1777642899 | 12.22° C | 63% | 1023.7 hPa | 0 mm | - | 659 W/m² | - |
| 1777642595 | 11.11° C | 68% | 1023.7 hPa | 0 mm | - | 504 W/m² | - |
| 1777642292 | 11.67° C | 64% | 1023.7 hPa | 0 mm | - | 289 W/m² | - |
| 1777641989 | 11.11° C | 66% | 1023.7 hPa | 0 mm | - | 372 W/m² | - |
| 1777641685 | 11.11° C | 67% | 1023.7 hPa | 0 mm | - | 412 W/m² | - |
| 1777641380 | 10.56° C | 67% | 1024 hPa | 0 mm | - | 281 W/m² | - |
| 1777641075 | 10.56° C | 68% | 1024 hPa | 0 mm | - | 406 W/m² | - |
| 1777640772 | 10.56° C | 69% | 1024 hPa | 0 mm | - | 261 W/m² | - |
| 1777640469 | 10.56° C | 68% | 1024 hPa | 0 mm | - | 211 W/m² | - |
| 1777640166 | 10° C | 70% | 1024 hPa | 0 mm | - | 228 W/m² | - |
| 1777639862 | 10.56° C | 69% | 1023.7 hPa | 0 mm | - | 219 W/m² | - |
| 1777639560 | 10.56° C | 71% | 1023.7 hPa | 0 mm | - | 222 W/m² | - |
| 1777639256 | 10° C | 71% | 1023.7 hPa | 0 mm | - | 180 W/m² | - |
* Rain latest hour (hover to see other rain measurements)
** Current wind speed in m/s (hover to see current wind gust speed)